Time;durP1;ratioP1;P1;durP2;ratioP2;P2;SDS_P1;SDS_P2;PMS_P1;PMS_P2;Temp;Humidity;BMP_temperature;BMP_pressure;BME280_temperature;BME280_humidity;BME280_pressure;Samples;Min_cycle;Max_cycle;Signal;HPM_P1;HPM_P2
2023/09/10 00:00:30;;;;;;;32.38;29.08;;;19.40;99.90;;;;;;5031225;28;20026;-84
2023/09/10 00:02:56;;;;;;;33.28;29.85;;;19.40;99.90;;;;;;5031259;28;20034;-84
2023/09/10 00:05:21;;;;;;;35.08;31.33;;;19.40;99.90;;;;;;5026780;28;20037;-83
2023/09/10 00:07:47;;;;;;;34.40;30.52;;;19.40;99.90;;;;;;5031780;28;20029;-83
2023/09/10 00:10:13;;;;;;;37.85;33.63;;;19.30;99.90;;;;;;5030278;28;20031;-84
2023/09/10 00:12:38;;;;;;;36.47;32.40;;;19.30;99.90;;;;;;5031032;28;20035;-84
2023/09/10 00:15:04;;;;;;;40.47;34.03;;;19.30;99.90;;;;;;5031751;28;20481;-84
2023/09/10 00:17:30;;;;;;;35.35;31.67;;;19.30;99.90;;;;;;5013425;28;20033;-84
2023/09/10 00:19:55;;;;;;;35.55;31.77;;;19.30;99.90;;;;;;5014235;28;20028;-84
2023/09/10 00:22:21;;;;;;;39.67;35.58;;;19.20;99.90;;;;;;5030623;28;20366;-85
2023/09/10 00:24:47;;;;;;;36.42;32.63;;;19.20;99.90;;;;;;5018376;28;20053;-84
2023/09/10 00:27:13;;;;;;;38.60;34.55;;;19.20;99.90;;;;;;5030175;28;20117;-84
2023/09/10 00:29:39;;;;;;;36.50;32.70;;;19.20;99.90;;;;;;5030655;28;20496;-84
2023/09/10 00:32:05;;;;;;;39.42;34.28;;;19.10;99.90;;;;;;5030713;28;20040;-84
2023/09/10 00:34:32;;;;;;;32.50;29.20;;;19.10;99.90;;;;;;5030534;28;20025;-84
2023/09/10 00:36:58;;;;;;;33.75;30.33;;;19.10;99.90;;;;;;5030242;28;20036;-84
2023/09/10 00:39:24;;;;;;;32.88;29.48;;;19.10;99.90;;;;;;5028640;28;20029;-84
2023/09/10 00:41:53;;;;;;;33.58;29.58;;;19.00;99.90;;;;;;5030822;28;20028;-84
2023/09/10 00:44:20;;;;;;;41.20;35.03;;;19.00;99.90;;;;;;5031573;28;20049;-84
2023/09/10 00:46:45;;;;;;;38.33;34.42;;;19.00;99.90;;;;;;5033846;28;20041;-84
2023/09/10 00:49:11;;;;;;;37.35;33.55;;;19.00;99.90;;;;;;5017486;28;20022;-84
2023/09/10 00:51:37;;;;;;;39.67;35.33;;;19.00;99.90;;;;;;5035580;28;20025;-84
2023/09/10 00:54:03;;;;;;;40.38;35.88;;;18.90;99.90;;;;;;5034614;28;20104;-83
2023/09/10 00:56:29;;;;;;;39.33;35.25;;;18.90;99.90;;;;;;5032574;28;20117;-84
2023/09/10 00:58:55;;;;;;;42.47;38.08;;;18.90;99.90;;;;;;5017081;28;20026;-84
2023/09/10 01:01:21;;;;;;;44.13;39.47;;;18.90;99.90;;;;;;5035179;28;20087;-84
2023/09/10 01:03:46;;;;;;;44.08;38.53;;;18.90;99.90;;;;;;5017271;28;20113;-84
2023/09/10 01:06:12;;;;;;;43.00;37.67;;;18.80;99.90;;;;;;5033803;28;20521;-84
2023/09/10 01:08:37;;;;;;;39.63;35.63;;;18.80;99.90;;;;;;5033983;28;20442;-83
2023/09/10 01:11:16;;;;;;;38.90;34.83;;;18.80;99.90;;;;;;5028978;28;20029;-84
2023/09/10 01:14:06;;;;;;;40.65;36.28;;;18.80;99.90;;;;;;5017932;28;20075;-84
2023/09/10 01:16:42;;;;;;;42.83;38.25;;;18.80;99.90;;;;;;5017111;28;20125;-84
2023/09/10 01:19:34;;;;;;;49.92;42.95;;;18.80;99.90;;;;;;5003367;28;20484;-84
2023/09/10 01:22:21;;;;;;;51.67;45.90;;;18.70;99.90;;;;;;5027257;28;20037;-85
2023/09/10 01:24:51;;;;;;;51.63;44.17;;;18.80;99.90;;;;;;5034712;28;20041;-84
2023/09/10 01:27:17;;;;;;;56.35;49.53;;;18.80;99.90;;;;;;5034967;28;20044;-85
2023/09/10 01:29:43;;;;;;;60.35;51.67;;;18.70;99.90;;;;;;5033580;28;20478;-84
2023/09/10 01:32:16;;;;;;;59.80;51.95;;;18.80;99.90;;;;;;5033680;28;20029;-85
2023/09/10 01:34:48;;;;;;;52.92;47.03;;;18.80;99.90;;;;;;5033627;28;20095;-84
2023/09/10 01:37:39;;;;;;;55.33;49.43;;;18.80;99.90;;;;;;5033976;28;20026;-84
2023/09/10 01:40:09;;;;;;;54.10;48.35;;;18.80;99.90;;;;;;5032485;28;20033;-84
2023/09/10 01:42:35;;;;;;;60.30;53.25;;;18.70;99.90;;;;;;5033232;28;20033;-84
2023/09/10 01:45:02;;;;;;;60.55;54.25;;;18.80;99.90;;;;;;5033975;28;20030;-84
2023/09/10 01:47:27;;;;;;;62.55;55.80;;;18.70;99.90;;;;;;5033690;28;20044;-84
2023/09/10 01:49:53;;;;;;;62.10;55.30;;;18.70;99.90;;;;;;5034094;28;20021;-84
2023/09/10 01:52:19;;;;;;;59.25;52.75;;;18.70;99.90;;;;;;5034320;28;20036;-84
2023/09/10 01:54:44;;;;;;;60.88;54.30;;;18.70;99.90;;;;;;5033705;28;20107;-84
2023/09/10 01:57:10;;;;;;;59.58;53.28;;;18.70;99.90;;;;;;5031954;28;20044;-84
2023/09/10 01:59:36;;;;;;;64.85;57.83;;;18.70;99.90;;;;;;5032506;28;20121;-84
2023/09/10 02:02:02;;;;;;;68.65;58.22;;;18.70;99.90;;;;;;5033007;28;20025;-84
2023/09/10 02:04:27;;;;;;;69.07;61.00;;;18.70;99.90;;;;;;5016707;28;20108;-84
2023/09/10 02:06:53;;;;;;;68.68;61.20;;;18.70;99.90;;;;;;5033008;28;20041;-84
2023/09/10 02:09:18;;;;;;;69.90;62.30;;;18.70;99.90;;;;;;5015864;28;20370;-85
2023/09/10 02:11:44;;;;;;;70.13;60.63;;;18.70;99.90;;;;;;5033340;28;20041;-84
2023/09/10 02:14:09;;;;;;;66.50;59.22;;;18.70;99.90;;;;;;5033052;28;20063;-84
2023/09/10 02:16:35;;;;;;;61.30;54.78;;;18.70;99.90;;;;;;5032798;28;20167;-84
2023/09/10 02:19:01;;;;;;;64.72;57.63;;;18.60;99.90;;;;;;5036872;28;20432;-84
2023/09/10 02:21:27;;;;;;;69.25;59.10;;;18.60;99.90;;;;;;5030758;28;20033;-84
2023/09/10 02:23:52;;;;;;;70.97;63.35;;;18.60;99.90;;;;;;5016336;28;20079;-84
2023/09/10 02:26:18;;;;;;;67.35;59.90;;;18.60;99.90;;;;;;5032703;28;20033;-84
2023/09/10 02:28:43;;;;;;;67.45;60.15;;;18.60;99.90;;;;;;5032271;28;20120;-84
2023/09/10 02:31:09;;;;;;;65.15;58.17;;;18.60;99.90;;;;;;5032480;28;20036;-84
2023/09/10 02:33:35;;;;;;;69.43;61.15;;;18.60;99.90;;;;;;5032821;28;20436;-84
2023/09/10 02:36:02;;;;;;;68.07;59.65;;;18.60;99.90;;;;;;5018228;28;20473;-84
2023/09/10 02:38:28;;;;;;;67.25;59.63;;;18.60;99.90;;;;;;5032538;28;20079;-84
2023/09/10 02:40:55;;;;;;;61.65;55.03;;;18.70;99.90;;;;;;5016052;28;20108;-84
2023/09/10 02:43:21;;;;;;;68.32;60.88;;;18.60;99.90;;;;;;5015895;28;20048;-84
2023/09/10 02:45:46;;;;;;;70.32;61.50;;;18.70;99.90;;;;;;5032359;28;20501;-84
2023/09/10 02:48:11;;;;;;;67.18;60.03;;;18.60;99.90;;;;;;5031728;28;20389;-84
2023/09/10 02:50:37;;;;;;;62.95;56.13;;;18.60;99.90;;;;;;5028987;28;20037;-84
2023/09/10 02:53:03;;;;;;;67.30;59.97;;;18.60;99.90;;;;;;4996122;28;20017;-84
2023/09/10 02:55:28;;;;;;;72.32;60.75;;;18.60;99.90;;;;;;5004593;28;20027;-84
2023/09/10 02:57:54;;;;;;;66.28;57.92;;;18.60;99.90;;;;;;5032322;28;20485;-84
2023/09/10 03:00:25;;;;;;;70.45;62.78;;;18.60;99.90;;;;;;5031735;28;20029;-84
2023/09/10 03:02:55;;;;;;;66.10;57.33;;;18.60;99.90;;;;;;5031607;28;20025;-85
2023/09/10 03:05:21;;;;;;;63.75;57.05;;;18.60;99.90;;;;;;5003187;28;20390;-84
2023/09/10 03:07:48;;;;;;;63.60;56.65;;;18.60;99.90;;;;;;5031094;28;20025;-84
2023/09/10 03:10:14;;;;;;;66.90;58.83;;;18.60;99.90;;;;;;5031500;28;20440;-84
2023/09/10 03:12:39;;;;;;;65.45;57.72;;;18.60;99.90;;;;;;5015586;28;20029;-84
2023/09/10 03:15:06;;;;;;;61.03;54.42;;;18.60;99.90;;;;;;5031589;28;20025;-84
2023/09/10 03:17:31;;;;;;;62.70;55.80;;;18.60;99.90;;;;;;5031591;28;20040;-84
2023/09/10 03:19:57;;;;;;;62.92;56.25;;;18.60;99.90;;;;;;5032767;28;20018;-85
2023/09/10 03:22:22;;;;;;;65.95;56.13;;;18.50;99.90;;;;;;5031617;28;20025;-85
2023/09/10 03:24:48;;;;;;;64.78;56.08;;;18.50;99.90;;;;;;5022451;28;20136;-84
2023/09/10 03:27:13;;;;;;;60.05;53.55;;;18.50;99.90;;;;;;5022097;28;20449;-84
2023/09/10 03:29:41;;;;;;;63.17;55.75;;;18.50;99.90;;;;;;5027929;28;20075;-84
2023/09/10 03:32:06;;;;;;;63.22;55.13;;;18.50;99.90;;;;;;5028037;28;20030;-84
2023/09/10 03:34:32;;;;;;;66.05;56.53;;;18.50;99.90;;;;;;5028162;28;20505;-84
2023/09/10 03:36:58;;;;;;;67.18;56.13;;;18.40;99.90;;;;;;5028399;28;20035;-84
2023/09/10 03:39:24;;;;;;;62.90;53.70;;;18.40;99.90;;;;;;5027436;28;20026;-84
2023/09/10 03:41:49;;;;;;;69.93;58.83;;;18.40;99.90;;;;;;5028122;28;20221;-84
2023/09/10 03:44:15;;;;;;;66.63;57.85;;;18.40;99.90;;;;;;5011479;28;20414;-84
2023/09/10 03:46:40;;;;;;;67.10;57.95;;;18.40;99.90;;;;;;5028411;28;20520;-84
2023/09/10 03:49:05;;;;;;;69.90;59.75;;;18.40;99.90;;;;;;5012318;28;20430;-84
2023/09/10 03:51:31;;;;;;;70.78;60.55;;;18.40;99.90;;;;;;5011638;28;20040;-84
2023/09/10 03:53:56;;;;;;;73.68;62.60;;;18.40;99.90;;;;;;5012887;28;20390;-84
2023/09/10 03:56:25;;;;;;;72.30;58.50;;;18.30;99.90;;;;;;5027576;28;20034;-84
2023/09/10 03:58:50;;;;;;;73.15;61.90;;;18.40;99.90;;;;;;5010799;28;20065;-84
2023/09/10 04:01:16;;;;;;;70.40;59.28;;;18.40;99.90;;;;;;5027455;28;20065;-84
2023/09/10 04:03:42;;;;;;;72.70;61.78;;;18.30;99.90;;;;;;5011401;28;20492;-84
2023/09/10 04:06:07;;;;;;;72.00;62.13;;;18.40;99.90;;;;;;5010901;28;20037;-84
2023/09/10 04:08:33;;;;;;;76.13;63.47;;;18.30;99.90;;;;;;5024208;28;20386;-84
2023/09/10 04:10:58;;;;;;;74.00;64.03;;;18.30;99.90;;;;;;5006578;28;20029;-83
2023/09/10 04:13:24;;;;;;;71.88;62.30;;;18.40;99.90;;;;;;5026544;28;20036;-84
2023/09/10 04:15:50;;;;;;;69.82;60.45;;;18.30;99.90;;;;;;5027420;28;20072;-84
2023/09/10 04:18:15;;;;;;;75.97;65.28;;;18.30;99.90;;;;;;5010766;28;20065;-84
2023/09/10 04:20:41;;;;;;;74.25;62.03;;;18.30;99.90;;;;;;5010040;28;20054;-84
2023/09/10 04:23:06;;;;;;;71.05;62.03;;;18.30;99.90;;;;;;5028076;28;20018;-84
2023/09/10 04:25:32;;;;;;;81.03;65.03;;;18.40;99.90;;;;;;5030604;28;20033;-84
2023/09/10 04:27:57;;;;;;;72.15;61.35;;;18.40;99.90;;;;;;5030135;28;20065;-84
2023/09/10 04:30:23;;;;;;;79.00;64.05;;;18.40;99.90;;;;;;5030439;28;20021;-84
2023/09/10 04:32:48;;;;;;;73.82;62.25;;;18.30;99.90;;;;;;5031165;28;20037;-85
2023/09/10 04:35:14;;;;;;;76.60;62.85;;;18.30;99.90;;;;;;5026874;28;20034;-85
2023/09/10 04:37:39;;;;;;;73.80;63.22;;;18.30;99.90;;;;;;5004283;28;20114;-85
2023/09/10 04:40:07;;;;;;;73.28;60.33;;;18.30;99.90;;;;;;5030642;28;20033;-84
2023/09/10 04:42:33;;;;;;;64.90;57.40;;;18.30;99.90;;;;;;5030655;28;20117;-85
2023/09/10 04:44:59;;;;;;;63.22;55.22;;;18.30;99.90;;;;;;5030805;28;20017;-85
2023/09/10 04:47:24;;;;;;;68.93;55.55;;;18.30;99.90;;;;;;5031321;28;20488;-85
2023/09/10 04:49:50;;;;;;;62.55;50.83;;;18.30;99.90;;;;;;5017718;28;20017;-85
2023/09/10 04:52:15;;;;;;;67.72;56.03;;;18.30;99.90;;;;;;5014064;28;20030;-85
2023/09/10 04:54:41;;;;;;;65.38;55.67;;;18.20;99.90;;;;;;5014074;28;20057;-85
2023/09/10 04:57:08;;;;;;;64.28;54.83;;;18.30;99.90;;;;;;5031494;28;20088;-85
2023/09/10 04:59:33;;;;;;;68.07;58.95;;;18.30;99.90;;;;;;5013985;28;20135;-84
2023/09/10 05:02:00;;;;;;;65.15;58.00;;;18.30;99.90;;;;;;5027264;28;20093;-85
2023/09/10 05:04:25;;;;;;;61.47;52.38;;;18.30;99.90;;;;;;5000821;28;20033;-85
2023/09/10 05:06:51;;;;;;;62.75;54.58;;;18.20;99.90;;;;;;5030216;28;20159;-85
2023/09/10 05:09:16;;;;;;;66.38;51.50;;;18.20;99.90;;;;;;5023992;28;20026;-85
2023/09/10 05:11:42;;;;;;;62.30;52.20;;;18.30;99.90;;;;;;5025463;28;20040;-85
2023/09/10 05:14:08;;;;;;;64.88;55.35;;;18.30;99.90;;;;;;5009131;28;20025;-85
2023/09/10 05:16:33;;;;;;;62.70;51.20;;;18.30;99.90;;;;;;5012129;28;20021;-85
2023/09/10 05:18:59;;;;;;;71.88;59.20;;;18.30;99.90;;;;;;5013943;28;20029;-87
2023/09/10 05:21:24;;;;;;;69.70;57.75;;;18.30;99.90;;;;;;5030265;28;20044;-87
2023/09/10 05:23:50;;;;;;;71.05;57.47;;;18.30;99.90;;;;;;5030210;28;20095;-87
2023/09/10 05:26:15;;;;;;;67.93;57.97;;;18.30;99.90;;;;;;5017521;28;20037;-87
2023/09/10 05:28:41;;;;;;;72.57;60.88;;;18.30;99.90;;;;;;5014253;28;20025;-87
2023/09/10 05:31:08;;;;;;;69.18;59.05;;;18.30;99.90;;;;;;5032884;28;20120;-87
2023/09/10 05:33:34;;;;;;;71.63;61.20;;;18.30;99.90;;;;;;5014922;28;20068;-87
2023/09/10 05:36:00;;;;;;;69.93;60.28;;;18.30;99.90;;;;;;4998501;28;20081;-87
2023/09/10 05:38:25;;;;;;;73.13;62.83;;;18.30;99.90;;;;;;5013803;28;20124;-87
2023/09/10 05:40:52;;;;;;;72.22;58.78;;;18.40;99.90;;;;;;5034075;28;21021;-87
2023/09/10 05:43:18;;;;;;;67.22;58.92;;;18.40;99.90;;;;;;5034090;28;20032;-87
2023/09/10 05:45:47;;;;;;;67.68;58.13;;;18.40;99.90;;;;;;5033181;28;20038;-87
2023/09/10 05:48:12;;;;;;;73.75;61.90;;;18.50;99.90;;;;;;5032404;28;20029;-87
2023/09/10 05:50:40;;;;;;;74.53;59.05;;;18.40;99.90;;;;;;5017195;28;20408;-87
2023/09/10 05:53:05;;;;;;;67.05;59.78;;;18.50;99.90;;;;;;5032078;28;20068;-87
2023/09/10 05:55:31;;;;;;;72.25;63.58;;;18.50;99.90;;;;;;5034314;28;20061;-87
2023/09/10 05:57:56;;;;;;;72.50;60.45;;;18.60;99.90;;;;;;5033736;28;20053;-87
2023/09/10 06:00:22;;;;;;;67.00;59.53;;;18.60;99.90;;;;;;5032394;28;20411;-87
2023/09/10 06:02:49;;;;;;;69.82;59.13;;;18.60;99.90;;;;;;5033196;28;20029;-87
2023/09/10 06:05:15;;;;;;;65.20;54.08;;;18.70;99.90;;;;;;5014825;28;20075;-87
2023/09/10 06:07:41;;;;;;;65.10;55.15;;;18.70;99.90;;;;;;5014145;28;20036;-87
2023/09/10 06:10:09;;;;;;;66.82;58.33;;;18.80;99.90;;;;;;5030352;28;20033;-87
2023/09/10 06:12:38;;;;;;;69.35;57.67;;;18.80;99.90;;;;;;5033516;28;20055;-87
2023/09/10 06:15:07;;;;;;;68.85;59.50;;;18.90;99.90;;;;;;5031466;28;20058;-87
2023/09/10 06:17:34;;;;;;;68.55;58.63;;;19.00;99.90;;;;;;5022310;28;20032;-86
2023/09/10 06:20:00;;;;;;;65.90;57.85;;;19.00;99.90;;;;;;5030310;28;20047;-87
2023/09/10 06:22:25;;;;;;;57.00;49.88;;;19.10;99.90;;;;;;5033462;28;20117;-86
2023/09/10 06:24:51;;;;;;;62.42;53.45;;;19.20;99.90;;;;;;5031328;28;20401;-85
2023/09/10 06:27:16;;;;;;;61.10;52.45;;;19.30;99.90;;;;;;5014762;28;21935;-85
2023/09/10 06:29:43;;;;;;;61.75;54.83;;;19.30;99.90;;;;;;5032264;28;20036;-85
2023/09/10 06:32:08;;;;;;;57.55;51.17;;;19.40;99.90;;;;;;5031471;28;20151;-86
2023/09/10 06:34:34;;;;;;;60.35;52.42;;;19.50;99.90;;;;;;5031882;28;20037;-85
2023/09/10 06:37:00;;;;;;;59.55;51.92;;;19.60;99.90;;;;;;5031598;28;20069;-86
2023/09/10 06:39:26;;;;;;;55.50;47.03;;;19.70;99.90;;;;;;5011388;28;20107;-86
2023/09/10 06:41:54;;;;;;;56.08;49.53;;;19.80;99.90;;;;;;5033431;28;20064;-85
2023/09/10 06:44:19;;;;;;;53.80;47.03;;;19.90;99.90;;;;;;5036998;28;20044;-86
2023/09/10 06:46:45;;;;;;;52.28;45.85;;;20.00;99.90;;;;;;5031592;28;20505;-85
2023/09/10 06:49:10;;;;;;;60.05;47.50;;;20.10;99.90;;;;;;5030740;28;20025;-86
2023/09/10 06:51:36;;;;;;;51.67;45.70;;;20.30;99.90;;;;;;5018529;28;20390;-86
2023/09/10 06:54:01;;;;;;;56.97;46.72;;;20.30;99.90;;;;;;5027064;28;20088;-85
2023/09/10 06:56:29;;;;;;;55.17;47.80;;;20.50;99.90;;;;;;5031375;28;20125;-86
2023/09/10 06:58:54;;;;;;;53.45;47.67;;;20.60;99.90;;;;;;5030318;28;20036;-86
2023/09/10 07:01:21;;;;;;;53.58;47.88;;;20.70;99.90;;;;;;5031239;28;20026;-86
2023/09/10 07:03:51;;;;;;;54.60;48.60;;;20.80;99.90;;;;;;5033266;28;20469;-86
2023/09/10 07:06:16;;;;;;;55.13;49.08;;;20.90;99.90;;;;;;5014525;28;20041;-87
2023/09/10 07:08:42;;;;;;;55.83;46.92;;;21.00;99.90;;;;;;5030284;28;20393;-87
2023/09/10 07:11:07;;;;;;;55.67;48.97;;;21.10;99.90;;;;;;5029382;28;20033;-86
2023/09/10 07:13:34;;;;;;;55.63;45.20;;;21.20;99.90;;;;;;5032293;28;20477;-87
2023/09/10 07:15:59;;;;;;;53.80;47.88;;;21.40;99.90;;;;;;5032050;28;20060;-87
2023/09/10 07:18:27;;;;;;;56.13;46.45;;;21.40;99.90;;;;;;5030748;28;20045;-86
2023/09/10 07:21:04;;;;;;;56.42;44.92;;;21.60;99.90;;;;;;5030648;28;20092;-86
2023/09/10 07:23:30;;;;;;;50.92;44.95;;;21.80;99.90;;;;;;5025319;28;20129;-87
2023/09/10 07:25:56;;;;;;;53.45;43.78;;;21.90;99.90;;;;;;5029006;28;20120;-86
2023/09/10 07:28:21;;;;;;;55.45;44.65;;;22.00;99.90;;;;;;5014871;28;20116;-87
2023/09/10 07:30:47;;;;;;;54.15;42.78;;;22.20;99.90;;;;;;5031767;28;20036;-87
2023/09/10 07:33:12;;;;;;;48.35;40.05;;;22.30;99.90;;;;;;5025381;28;20053;-86
2023/09/10 07:35:38;;;;;;;43.83;36.08;;;22.40;99.90;;;;;;5031684;28;20033;-85
2023/09/10 07:38:04;;;;;;;47.13;36.17;;;22.50;99.90;;;;;;5027416;28;20014;-86
2023/09/10 07:40:29;;;;;;;43.63;35.55;;;22.60;99.90;;;;;;5027539;28;20036;-87
2023/09/10 07:42:58;;;;;;;41.85;34.55;;;22.80;99.90;;;;;;5029141;28;20030;-85
2023/09/10 07:45:24;;;;;;;43.83;35.78;;;22.80;99.90;;;;;;5030457;28;20048;-88
2023/09/10 07:47:50;;;;;;;39.33;31.67;;;23.00;99.90;;;;;;5011425;28;20021;-88
2023/09/10 07:50:15;;;;;;;41.58;33.08;;;23.10;99.90;;;;;;5030381;28;20030;-88
2023/09/10 07:52:41;;;;;;;40.30;33.47;;;23.20;99.90;;;;;;5026641;28;20108;-87
2023/09/10 07:55:09;;;;;;;43.55;32.63;;;23.30;99.90;;;;;;5025056;28;20024;-88
2023/09/10 07:57:34;;;;;;;35.03;29.00;;;23.40;99.90;;;;;;5014677;28;20021;-89
2023/09/10 08:00:00;;;;;;;42.10;30.02;;;23.40;99.90;;;;;;5031415;28;20504;-88
2023/09/10 08:02:27;;;;;;;34.10;28.42;;;23.50;99.90;;;;;;5010361;28;20033;-86
2023/09/10 08:04:54;;;;;;;30.42;27.10;;;23.60;99.90;;;;;;5028266;28;20112;-88
2023/09/10 08:07:19;;;;;;;34.25;27.10;;;23.70;99.90;;;;;;5030581;28;20041;-88
2023/09/10 08:09:45;;;;;;;37.50;29.65;;;23.80;99.90;;;;;;5013534;28;20033;-88
2023/09/10 08:12:11;;;;;;;36.38;28.85;;;23.90;99.90;;;;;;5028965;28;20370;-88
2023/09/10 08:14:38;;;;;;;29.60;25.52;;;24.00;99.90;;;;;;5030119;28;20477;-85
2023/09/10 08:17:04;;;;;;;37.40;26.27;;;24.10;99.90;;;;;;5029027;28;20536;-85
2023/09/10 08:19:29;;;;;;;28.48;24.45;;;24.20;99.90;;;;;;5030748;28;20042;-84
2023/09/10 08:21:55;;;;;;;36.38;25.90;;;24.30;99.90;;;;;;5029621;28;20098;-85
2023/09/10 08:24:21;;;;;;;31.33;25.75;;;24.40;99.90;;;;;;5027692;28;20408;-85
2023/09/10 08:26:47;;;;;;;25.92;22.83;;;24.50;99.90;;;;;;5026574;28;20477;-85
2023/09/10 08:29:12;;;;;;;28.42;22.48;;;24.60;99.90;;;;;;5028199;28;20109;-84
2023/09/10 08:31:38;;;;;;;29.95;23.98;;;24.70;99.90;;;;;;5012537;28;20026;-84
2023/09/10 08:34:03;;;;;;;27.73;22.85;;;24.80;99.90;;;;;;5030913;28;20021;-85
2023/09/10 08:36:29;;;;;;;28.30;21.13;;;24.90;99.90;;;;;;5014714;28;20370;-85
2023/09/10 08:38:54;;;;;;;30.15;23.23;;;25.00;99.90;;;;;;5015447;28;20029;-85
2023/09/10 08:41:33;;;;;;;31.13;20.98;;;25.10;99.90;;;;;;5011565;28;20367;-85
2023/09/10 08:44:02;;;;;;;25.13;21.10;;;25.20;99.90;;;;;;5007707;28;20022;-84
2023/09/10 08:46:31;;;;;;;27.35;20.95;;;25.30;99.90;;;;;;5030948;28;20044;-85
2023/09/10 08:48:58;;;;;;;29.23;20.55;;;25.40;99.90;;;;;;5030269;28;20030;-83
2023/09/10 08:51:24;;;;;;;23.10;18.35;;;25.60;99.90;;;;;;5029823;28;20084;-84
2023/09/10 08:53:53;;;;;;;22.70;18.20;;;25.70;99.90;;;;;;5030090;28;20469;-84
2023/09/10 08:56:19;;;;;;;24.45;19.88;;;25.90;99.90;;;;;;5020592;28;20057;-84
2023/09/10 08:58:47;;;;;;;23.70;17.13;;;26.00;99.90;;;;;;5013543;28;20508;-85
2023/09/10 09:01:14;;;;;;;19.63;16.05;;;26.10;99.90;;;;;;5005180;28;20067;-85
2023/09/10 09:03:40;;;;;;;22.80;18.65;;;26.20;99.90;;;;;;5026016;28;20030;-84
2023/09/10 09:06:06;;;;;;;21.52;16.88;;;26.30;99.90;;;;;;5009135;28;20092;-84
2023/09/10 09:08:33;;;;;;;21.65;17.15;;;26.40;99.90;;;;;;5029322;28;20028;-84
2023/09/10 09:11:05;;;;;;;25.55;18.33;;;26.50;99.90;;;;;;5028854;28;20112;-84
2023/09/10 09:13:35;;;;;;;23.00;17.63;;;26.60;99.90;;;;;;5026658;28;20026;-84
2023/09/10 09:16:02;;;;;;;23.00;17.15;;;26.60;99.90;;;;;;5030381;28;20040;-85
2023/09/10 09:18:29;;;;;;;24.40;17.88;;;26.70;99.90;;;;;;5034901;28;20322;-83
2023/09/10 09:20:58;;;;;;;26.45;18.88;;;26.70;99.90;;;;;;5029608;28;20072;-84
2023/09/10 09:23:30;;;;;;;20.77;16.08;;;26.90;99.90;;;;;;5033270;28;20104;-83
2023/09/10 09:25:57;;;;;;;16.90;15.18;;;26.90;99.90;;;;;;5032407;28;20049;-83
2023/09/10 09:28:23;;;;;;;20.75;15.55;;;26.90;99.90;;;;;;5033312;28;20028;-86
2023/09/10 09:30:49;;;;;;;23.63;16.77;;;27.10;99.90;;;;;;5029439;28;20041;-86
2023/09/10 09:33:15;;;;;;;19.50;16.08;;;27.10;99.90;;;;;;5027348;28;20037;-84
2023/09/10 09:35:40;;;;;;;20.13;15.02;;;27.20;99.90;;;;;;5031914;28;20116;-85
2023/09/10 09:38:15;;;;;;;25.52;16.95;;;27.30;99.90;;;;;;5032617;28;20071;-85
2023/09/10 09:40:42;;;;;;;20.48;14.98;;;27.40;99.90;;;;;;5033002;28;20026;-85
2023/09/10 09:43:08;;;;;;;21.63;15.45;;;27.50;99.90;;;;;;5032587;28;20028;-85
2023/09/10 09:45:35;;;;;;;19.13;14.48;;;27.50;99.90;;;;;;5033589;28;20083;-85
2023/09/10 09:48:03;;;;;;;23.08;16.85;;;27.60;99.90;;;;;;5031121;28;20374;-85
2023/09/10 09:50:29;;;;;;;20.15;14.85;;;27.70;99.90;;;;;;5031647;28;20091;-86
2023/09/10 09:52:56;;;;;;;17.88;13.40;;;27.80;99.90;;;;;;5030305;28;20033;-85
2023/09/10 09:55:21;;;;;;;18.85;14.40;;;27.80;99.90;;;;;;5030864;28;20057;-85
2023/09/10 09:57:48;;;;;;;20.52;14.50;;;27.90;99.90;;;;;;5028707;28;20045;-85
2023/09/10 10:00:14;;;;;;;23.38;15.05;;;28.00;99.90;;;;;;5012520;28;20049;-85
2023/09/10 10:02:40;;;;;;;20.17;13.88;;;28.10;99.90;;;;;;5014166;28;20128;-83
2023/09/10 10:05:07;;;;;;;21.35;16.23;;;28.20;99.90;;;;;;5018705;28;20032;-83
2023/09/10 10:07:36;;;;;;;21.60;15.05;;;28.20;99.90;;;;;;5012126;28;20088;-83
2023/09/10 10:10:05;;;;;;;17.85;13.27;;;28.30;99.90;;;;;;5026300;28;20035;-85
2023/09/10 10:12:31;;;;;;;18.15;15.75;;;28.50;99.90;;;;;;5029281;28;20056;-84
2023/09/10 10:14:58;;;;;;;20.77;16.52;;;28.50;99.90;;;;;;5030468;28;20025;-84
2023/09/10 10:17:25;;;;;;;20.67;15.82;;;28.50;99.90;;;;;;5028938;28;20033;-83
2023/09/10 10:19:51;;;;;;;17.25;15.23;;;28.60;99.90;;;;;;5031104;28;20025;-84
2023/09/10 10:22:17;;;;;;;19.08;15.07;;;28.60;99.90;;;;;;5014408;28;20033;-84
2023/09/10 10:24:44;;;;;;;17.17;14.52;;;28.70;99.90;;;;;;5032054;28;20045;-84
2023/09/10 10:27:12;;;;;;;17.67;13.50;;;28.70;99.90;;;;;;5029822;28;20509;-84
2023/09/10 10:29:39;;;;;;;17.58;12.70;;;28.80;99.90;;;;;;5026812;28;20064;-84
2023/09/10 10:32:05;;;;;;;18.77;15.10;;;28.90;99.90;;;;;;5006820;28;20065;-83
2023/09/10 10:34:41;;;;;;;18.38;13.82;;;28.90;99.90;;;;;;5028118;28;20053;-85
2023/09/10 10:37:38;;;;;;;17.73;12.93;;;29.00;99.90;;;;;;5013994;28;20049;-84
2023/09/10 10:40:18;;;;;;;18.85;13.52;;;29.10;99.90;;;;;;4997779;28;20081;-84
2023/09/10 10:43:08;;;;;;;16.27;12.15;;;29.20;99.90;;;;;;5010224;28;20059;-84
2023/09/10 10:45:35;;;;;;;18.85;12.80;;;29.20;99.90;;;;;;5026945;28;20080;-84
2023/09/10 10:48:06;;;;;;;16.63;12.93;;;29.30;99.90;;;;;;5008934;28;20040;-84
2023/09/10 10:50:35;;;;;;;20.27;14.80;;;29.40;99.90;;;;;;5006816;28;20076;-84
2023/09/10 10:53:15;;;;;;;17.13;11.73;;;29.50;99.90;;;;;;5028319;28;20030;-83
2023/09/10 10:55:41;;;;;;;15.25;12.05;;;29.50;99.90;;;;;;5011828;28;20065;-84
2023/09/10 10:58:07;;;;;;;16.88;13.60;;;29.60;99.90;;;;;;5013284;28;20030;-84
2023/09/10 11:00:33;;;;;;;17.17;12.25;;;29.70;99.90;;;;;;5033024;28;20021;-84
2023/09/10 11:03:15;;;;;;;20.48;12.48;;;29.70;99.90;;;;;;5029534;28;20064;-84
2023/09/10 11:06:05;;;;;;;16.38;12.40;;;29.90;99.90;;;;;;5028627;28;20037;-85
2023/09/10 11:08:46;;;;;;;16.90;11.60;;;30.00;99.90;;;;;;5027439;28;20508;-84
2023/09/10 11:11:33;;;;;;;19.02;11.63;;;30.00;99.90;;;;;;5010780;28;20026;-84
2023/09/10 11:14:01;;;;;;;19.50;12.77;;;30.20;99.90;;;;;;5029088;28;20032;-83
2023/09/10 11:16:32;;;;;;;18.88;12.48;;;30.20;99.90;;;;;;5029928;28;20147;-85
2023/09/10 11:18:58;;;;;;;17.92;10.20;;;30.20;99.90;;;;;;5028958;28;20119;-85
2023/09/10 11:21:56;;;;;;;19.92;11.60;;;30.20;99.90;;;;;;5021366;28;20072;-85
2023/09/10 11:24:21;;;;;;;19.33;13.05;;;30.30;99.90;;;;;;5029695;28;20053;-86
2023/09/10 11:26:47;;;;;;;18.33;11.57;;;30.40;99.90;;;;;;5029700;28;20033;-85
2023/09/10 11:29:21;;;;;;;17.45;12.85;;;30.40;99.90;;;;;;5030267;28;20029;-85
2023/09/10 11:31:55;;;;;;;15.93;10.70;;;30.50;99.90;;;;;;5029192;28;20030;-86
2023/09/10 11:34:22;;;;;;;17.13;11.98;;;30.60;99.90;;;;;;5007778;28;20480;-85
2023/09/10 11:36:48;;;;;;;14.68;11.10;;;30.70;99.90;;;;;;5013861;28;20084;-84
2023/09/10 11:39:15;;;;;;;16.30;11.95;;;30.70;99.90;;;;;;5028222;28;20026;-86
2023/09/10 11:41:49;;;;;;;13.15;10.68;;;30.80;99.90;;;;;;5033539;28;20033;-85
2023/09/10 11:44:14;;;;;;;15.35;10.73;;;30.90;99.60;;;;;;5003349;28;20043;-84
2023/09/10 11:46:40;;;;;;;14.75;11.68;;;31.00;99.40;;;;;;5028416;28;20030;-85
2023/09/10 11:49:06;;;;;;;13.27;10.98;;;31.00;98.80;;;;;;5002858;28;20029;-86
2023/09/10 11:51:32;;;;;;;16.55;10.05;;;31.00;98.60;;;;;;5032038;28;20512;-85
2023/09/10 11:53:59;;;;;;;16.13;9.45;;;31.00;98.50;;;;;;5029301;28;20040;-85
2023/09/10 11:56:26;;;;;;;15.05;10.85;;;31.10;98.30;;;;;;5018725;28;20044;-85
2023/09/10 11:58:53;;;;;;;14.45;9.13;;;31.10;97.90;;;;;;5022369;28;20022;-85
2023/09/10 12:01:22;;;;;;;16.65;8.75;;;31.20;97.50;;;;;;5029138;28;20026;-86
2023/09/10 12:04:00;;;;;;;14.63;8.20;;;31.20;97.30;;;;;;5023117;28;20033;-85
2023/09/10 12:06:25;;;;;;;10.80;8.75;;;31.40;97.30;;;;;;5012229;28;20037;-84
2023/09/10 12:08:52;;;;;;;16.05;9.25;;;31.40;96.70;;;;;;5007354;28;20119;-84
2023/09/10 12:13:47;;;;;;;15.23;9.93;;;31.50;96.20;;;;;;5025475;23;20140;-85
2023/09/10 12:16:13;;;;;;;16.95;9.90;;;31.60;96.30;;;;;;5010951;28;20124;-85
2023/09/10 12:18:39;;;;;;;11.15;8.05;;;31.60;95.90;;;;;;5012597;28;20028;-84
2023/09/10 12:21:05;;;;;;;15.10;7.20;;;31.70;96.80;;;;;;5034400;28;20443;-84
2023/09/10 12:23:32;;;;;;;15.02;8.38;;;31.70;96.40;;;;;;5030345;28;20083;-85
2023/09/10 12:25:59;;;;;;;11.45;8.77;;;31.80;96.20;;;;;;5014715;28;20045;-86
2023/09/10 12:28:25;;;;;;;11.23;6.55;;;31.90;95.70;;;;;;5028472;28;20041;-83
2023/09/10 12:30:52;;;;;;;17.02;9.20;;;31.90;95.50;;;;;;5032895;28;20034;-84